Bruno, MN

9:21 PM CST on March 02, 2015 (GMT -0600)
Coffee Lake | Change Station
CLOSE
Current Station
Personal Weather Station
Location: Moose Lake Twp., MN
Elevation: 1060 ft
Nearby Weather Stations
Active Advisory: Winter Weather Advisory

Elev 1060 ft 46.43 °N, 92.78 °W | Updated 4 seconds ago

Overcast
Overcast
21.0 °F
Feels Like 21 °F
N
2.9
Wind Variable Wind from SSW
Gusts 4.9 mph

Today
High -- | Low -- °F
--% Chance of Precip.
Yesterday
High -- | Low -- °F
Precip. -- in
6:47 AM 5:57 PM
Waxing Gibbous, 94% visible
Pressure 30.06 in
Visibility 10.0 miles
Clouds Overcast 9500 ft
Windchill 21 °F
Dew Point 2 °F
Humidity 42%
Rainfall 0.00 in
Snow Depth Not available.
UV 0 out of 12
Pollen .10 out of 12
Air Quality Not available.
Flu Activity Not available.
METAR KMZH 030315Z AUTO 19009G14KT 10SM OVC095 M05/M15 A3006 RMK AO2

More Conditions Fewer Conditions

Pressure 30.06 in
Visibility 10.0 miles
Clouds Overcast 9500 ft
Windchill 21 °F
Dew Point 2 °F
Humidity 42%
Rainfall 0.00 in
Snow Depth Not available.
UV 0 out of 12
Pollen .10 out of 12
Air Quality Not available.
Flu Activity Not available.
METAR KMZH 030315Z AUTO 19009G14KT 10SM OVC095 M05/M15 A3006 RMK AO2

More Conditions Fewer Conditions

10-Day Weather Forecast

Almanac

Astronomy

Mar. 02, 2015 Rise Set
Actual Time
Civil Twilight
Nautical Twilight
Astronomical Twilight
Moon
Length of Visible Light
Length of Day
Tomorrow will be .
, % of the Moon is Illuminated

Today's Extremes

State Highs State Lows

Community

WunderPhotos

Upload Photos

1,802,057 photos uploaded!

WunderBlogs® & News

Nearby

Air Quality

  Air Quality AQ Index Pollutant
Not available.

Snow Depth

Station Depth Elevation

Earthquake Activity

City Distance Mag. Time & Date
Minimum magnitude displayed is 2.5.

Coastal Water Temperatures

Place Temperature

Nearby Weather Stations

Winter Weather Advisory
Statement as of 2:17 PM CST on March 02, 2015

... Winter Weather Advisory remains in effect from 3 am Tuesday to
midnight CST Tuesday night...

* locations... portions of northeast Minnesota and all of
northwest Wisconsin including the twin ports... Ashland and the
Saint Croix River Valley.

* Timing... snow will develop late tonight and continue through
Tuesday afternoon. Blowing snow will begin in the late
afternoon and continue through Tuesday evening.

* Snow accumulations... 3 to 5 inches.

* Winds... southwest 10 to 20 mph with gusts up to 30 mph.

* Visibilities... snow and blowing snow will reduce visibilities
to a quarter mile or less at times.

* Impacts... travel conditions will become hazardous early
Tuesday morning through Tuesday night.

Precautionary/preparedness actions...

A Winter Weather Advisory for snow and blowing snow means that
visibilities will be limited due to a combination of falling and
blowing snow. Use caution when traveling... especially in open
areas that are more exposed to the wind. Roads may be slick and
hazardous... so allow extra time to reach your destination.